LTAU Airport Information

Runway Information
Runway 07 Length 9841 ft width 145 ft
Elevation 3449 ft Threshold 0 ft Heading 76
Runway 25 Length 9841 ft Width 145 ft
Elevation 3463 ft Threshold 0 ft Heading 256
Airport Frequencies
Type APP Name APP Frequency 122.1 MHZ
Type GND Name GND Frequency 121.95 MHZ
Type TWR Name TWR Frequency 122.1 MHZ
Airport Navaids
Type TACAN Name Kayseri Frequency 116900 KHZ
Type VOR-DME Name Kayseri Frequency 116300 KHZ
Airport Weather Information & NOTAM
ADDS - METARS form results

(2014 UTC 18 July 2019)
Data provider http://aviationweather.gov/metar/data/
 
METAR text: LTAU 181950Z 00000KT 9999 BKN035 BKN100 19/15 Q1014 RESHRA NOSIG RMK RWY07 28006KT 250V320
Conditions at: LTAU (KAYSERI/ERKILET , TR) observed 1950 UTC 18 July 2019
Temperature: 19.0°C (66°F)
Dewpoint: 15.0°C (59°F) [RH = 78%]
Pressure (altimeter): 29.94 inches Hg (1014.0 mb)
Winds: calm
Visibility: 6 or more miles (10+ km)
Ceiling: 3500 feet AGL
Clouds: broken clouds at 3500 feet AGL
broken clouds at 10000 feet AGL
Weather: no significant weather observed at this time

METAR text: LTAU 181920Z 04005KT 350V050 9999 -SHRA BKN035 BKN100 19/14 Q1014 NOSIG RMK RWY07 VRB01KT
Conditions at: LTAU (KAYSERI/ERKILET , TR) observed 1920 UTC 18 July 2019
Temperature: 19.0°C (66°F)
Dewpoint: 14.0°C (57°F) [RH = 73%]
Pressure (altimeter): 29.94 inches Hg (1014.0 mb)
Winds: from the NE (40 degrees) at 6 MPH (5 knots; 2.6 m/s)
Visibility: 6 or more miles (10+ km)
Ceiling: 3500 feet AGL
Clouds: broken clouds at 3500 feet AGL
broken clouds at 10000 feet AGL
Weather: -SHRA  (light rain showers)

Forecast for: LTAU (KAYSERI/ERKILET , TR)
Text: TAF LTAU 181640Z 1818/1918 VRB02KT 9999 BKN035
Forecast period: 1800 UTC 18 July 2019 to 1800 UTC 19 July 2019
Forecast type: FROM: standard forecast or significant change
Winds: variable direction winds at 2 MPH (2 knots; 1.0 m/s)
Visibility: 6 or more miles 10+ km)
Ceiling: 3500 feet AGL
Clouds: broken clouds at 3500 feet AGL
Weather: no significant weather forecast for this period
Text: PROB30
Forecast period: 2100 UTC 18 July 2019 to 0100 UTC 19 July 2019
Forecast type: TEMPORARY: The following changes expected for less than half the time period
Visibility: missing
Ceiling: unknown
Clouds: missing
Weather: -SHRA  (light rain showers)
Text: TEMPO 1821/1901 -SHRA
Forecast period: 1000 to 1400 UTC 19 July 2019
Forecast type: TEMPORARY: The following changes expected for less than half the time period
Winds: from the NNW (330 degrees) at 17 MPH (15 knots; 7.7 m/s)
gusting to 29 MPH (25 knots; 12.9 m/s)
Visibility: missing
Ceiling: 3000 feet AGL
Clouds: few clouds at 2500 feet AGL
broken clouds at 3000 feet AGL
Weather: -TSRA  (light rain associated with thunderstorm(s))